createdAt,value
2019-01-29T00:00:42.457Z,15.13
2019-01-29T00:03:12.814Z,15.30
2019-01-29T00:05:43.290Z,13.70
2019-01-29T00:08:13.689Z,14.13
2019-01-29T00:10:44.131Z,13.07
2019-01-29T00:13:14.848Z,18.90
2019-01-29T00:15:45.658Z,12.63
2019-01-29T00:18:16.336Z,16.13
2019-01-29T00:20:46.841Z,12.93
2019-01-29T00:23:17.229Z,11.50
2019-01-29T00:25:47.607Z,17.10
2019-01-29T00:28:18.042Z,19.20
2019-01-29T00:30:48.445Z,10.63
2019-01-29T00:33:19.212Z,12.37
2019-01-29T00:35:49.606Z,11.53
2019-01-29T00:38:21.022Z,13.13
2019-01-29T00:40:51.400Z,7.70
2019-01-29T00:43:21.790Z,16.67
2019-01-29T00:45:52.950Z,12.07
2019-01-29T00:48:23.830Z,8.33
2019-01-29T00:50:54.580Z,13.43
2019-01-29T00:53:24.951Z,11.70
2019-01-29T00:55:57.460Z,11.47
2019-01-29T00:58:28.572Z,11.10
2019-01-29T01:00:59.087Z,14.90
2019-01-29T01:03:29.485Z,14.53
2019-01-29T01:05:59.920Z,11.47
2019-01-29T01:08:30.643Z,8.80
2019-01-29T01:11:01.025Z,8.43
2019-01-29T01:13:31.460Z,7.40
2019-01-29T01:16:01.846Z,16.97
2019-01-29T01:18:32.643Z,12.37
2019-01-29T01:21:03.042Z,11.90
2019-01-29T01:23:33.480Z,10.30
2019-01-29T01:26:03.852Z,8.17
2019-01-29T01:28:34.242Z,14.10
2019-01-29T01:31:05.015Z,12.57
2019-01-29T01:33:35.769Z,11.57
2019-01-29T01:36:06.141Z,13.03
2019-01-29T01:38:36.571Z,10.93
2019-01-29T01:41:06.957Z,11.57
2019-01-29T01:43:37.291Z,11.10
2019-01-29T01:46:07.677Z,10.50
2019-01-29T01:48:38.114Z,12.33
2019-01-29T01:51:08.477Z,11.33
2019-01-29T01:53:38.870Z,12.10
2019-01-29T01:56:09.851Z,12.37
2019-01-29T01:58:40.244Z,10.97
2019-01-29T02:01:10.769Z,9.93
2019-01-29T02:03:41.203Z,14.83
2019-01-29T02:06:11.560Z,8.83
2019-01-29T02:08:42.379Z,10.50
2019-01-29T02:11:12.784Z,15.93
2019-01-29T02:13:43.863Z,12.23
2019-01-29T02:16:14.485Z,9.70
2019-01-29T02:18:45.310Z,11.13
2019-01-29T02:21:15.715Z,11.07
2019-01-29T02:23:46.381Z,10.03
2019-01-29T02:26:16.812Z,14.57
2019-01-29T02:28:47.514Z,12.07
2019-01-29T02:31:18.460Z,14.87
2019-01-29T02:33:49.274Z,10.57
2019-01-29T02:36:19.696Z,11.70
2019-01-29T02:38:50.742Z,12.53
2019-01-29T02:41:21.125Z,13.00
2019-01-29T02:44:04.003Z,12.70
2019-01-29T02:46:34.458Z,17.40
2019-01-29T02:49:04.870Z,14.20
2019-01-29T02:51:35.331Z,14.87
2019-01-29T02:54:05.816Z,14.30
2019-01-29T02:56:36.198Z,14.90
2019-01-29T02:59:07.169Z,9.93
2019-01-29T03:01:38.224Z,12.83
2019-01-29T03:04:08.796Z,15.00
2019-01-29T03:06:39.341Z,17.23
2019-01-29T03:09:10.877Z,12.00
2019-01-29T03:11:41.272Z,12.43
2019-01-29T03:14:11.997Z,14.60
2019-01-29T03:16:42.630Z,20.47
2019-01-29T03:19:13.052Z,12.90
2019-01-29T03:21:43.532Z,14.43
2019-01-29T03:24:13.964Z,12.60
2019-01-29T03:26:44.640Z,14.20
2019-01-29T03:29:15.096Z,13.63
2019-01-29T03:31:45.476Z,15.57
2019-01-29T03:34:15.904Z,18.27
2019-01-29T03:36:46.580Z,16.40
2019-01-29T03:39:17.223Z,15.13
2019-01-29T03:42:07.412Z,9.70
2019-01-29T03:44:38.237Z,12.47
2019-01-29T03:47:08.637Z,12.87
2019-01-29T03:49:39.408Z,14.00
2019-01-29T03:52:10.088Z,13.13
2019-01-29T03:54:40.466Z,16.60
2019-01-29T03:57:10.887Z,17.40
2019-01-29T03:59:41.291Z,13.90
2019-01-29T04:02:11.945Z,12.93
2019-01-29T04:04:42.323Z,13.23
2019-01-29T04:07:12.743Z,10.50
2019-01-29T04:09:44.100Z,14.37
2019-01-29T04:12:14.529Z,14.87
2019-01-29T04:14:44.954Z,13.63
2019-01-29T04:17:15.417Z,15.33
2019-01-29T04:19:45.781Z,11.43
2019-01-29T04:22:16.214Z,16.60
2019-01-29T04:24:47.438Z,12.43
2019-01-29T04:27:17.874Z,14.30
2019-01-29T04:29:48.543Z,12.53
2019-01-29T04:32:18.933Z,15.40
2019-01-29T04:34:49.373Z,14.07
2019-01-29T04:37:19.753Z,12.87
2019-01-29T04:39:50.224Z,16.77
2019-01-29T04:42:20.625Z,11.60
2019-01-29T04:44:51.278Z,13.23
2019-01-29T04:47:21.948Z,15.67
2019-01-29T04:49:53.753Z,12.07
2019-01-29T04:52:24.331Z,9.40
2019-01-29T04:54:54.823Z,11.70
2019-01-29T04:57:25.509Z,13.17
2019-01-29T05:00:17.729Z,8.73
2019-01-29T05:02:48.251Z,10.10
2019-01-29T05:05:20.026Z,9.97
2019-01-29T05:07:50.493Z,16.00
2019-01-29T05:10:21.819Z,15.07
2019-01-29T05:12:52.268Z,7.10
2019-01-29T05:15:23.683Z,18.30
2019-01-29T05:17:56.626Z,13.07
2019-01-29T05:20:27.022Z,13.27
2019-01-29T05:22:57.435Z,9.90
2019-01-29T05:25:27.974Z,9.63
2019-01-29T05:27:58.624Z,15.50
2019-01-29T05:30:29.343Z,14.60
2019-01-29T05:32:59.731Z,14.50
2019-01-29T05:35:30.718Z,13.97
2019-01-29T05:38:01.127Z,13.30
2019-01-29T05:40:32.231Z,13.00
2019-01-29T05:43:02.625Z,7.57
2019-01-29T05:45:33.071Z,17.77
2019-01-29T05:48:04.513Z,14.63
2019-01-29T05:50:34.927Z,16.03
2019-01-29T05:53:06.231Z,11.47
2019-01-29T05:55:36.614Z,9.87
2019-01-29T05:58:07.468Z,11.20
2019-01-29T06:00:40.248Z,13.63
2019-01-29T06:03:10.660Z,15.27
2019-01-29T06:05:41.025Z,19.80
2019-01-29T06:08:11.512Z,20.83
2019-01-29T06:10:42.190Z,20.33
2019-01-29T06:13:13.188Z,18.13
2019-01-29T06:15:44.015Z,9.70
2019-01-29T06:18:14.443Z,13.10
2019-01-29T06:20:44.897Z,15.63
2019-01-29T06:23:15.731Z,18.00
2019-01-29T06:25:46.216Z,18.13
2019-01-29T06:28:20.003Z,21.07
2019-01-29T06:30:51.039Z,16.10
2019-01-29T06:33:21.509Z,23.30
2019-01-29T06:35:52.249Z,18.33
2019-01-29T06:38:22.637Z,23.00
2019-01-29T06:40:53.595Z,20.87
2019-01-29T06:43:26.115Z,25.27
2019-01-29T06:45:56.541Z,19.60
2019-01-29T06:48:27.329Z,30.40
2019-01-29T06:50:58.028Z,22.53
2019-01-29T06:53:28.453Z,25.17
2019-01-29T06:55:58.860Z,23.07
2019-01-29T06:58:29.305Z,21.60
2019-01-29T07:00:59.826Z,20.47
2019-01-29T07:03:30.278Z,22.27
2019-01-29T07:06:00.825Z,24.47
2019-01-29T07:08:31.191Z,22.23
2019-01-29T07:11:01.589Z,22.37
2019-01-29T07:13:32.514Z,18.07
2019-01-29T07:16:34.067Z,22.77
2019-01-29T07:19:21.622Z,14.47
2019-01-29T07:21:52.123Z,20.67
2019-01-29T07:24:22.545Z,21.63
2019-01-29T07:26:53.330Z,17.47
2019-01-29T07:29:23.703Z,21.97
2019-01-29T07:31:54.185Z,21.87
2019-01-29T07:34:25.077Z,21.47
2019-01-29T07:36:55.571Z,22.30
2019-01-29T07:39:26.274Z,27.87
2019-01-29T07:41:56.627Z,20.67
2019-01-29T07:44:27.411Z,20.83
2019-01-29T07:46:58.075Z,22.63
2019-01-29T07:49:28.913Z,21.90
2019-01-29T07:51:59.691Z,25.50
2019-01-29T07:54:33.328Z,21.20
2019-01-29T07:57:02.214Z,21.67
2019-01-29T07:59:33.369Z,23.13
2019-01-29T08:02:04.000Z,23.67
2019-01-29T08:04:34.548Z,23.20
2019-01-29T08:07:04.953Z,25.80
2019-01-29T08:09:51.532Z,20.37
2019-01-29T08:12:21.928Z,23.17
2019-01-29T08:14:52.623Z,20.00
2019-01-29T08:17:23.011Z,25.83
2019-01-29T08:19:53.538Z,25.63
2019-01-29T08:22:23.962Z,23.80
2019-01-29T08:25:01.809Z,25.20
2019-01-29T08:27:32.601Z,21.60
2019-01-29T08:30:03.799Z,25.10
2019-01-29T08:32:36.303Z,18.50
2019-01-29T08:35:07.628Z,24.00
2019-01-29T08:37:39.192Z,23.77
2019-01-29T08:40:09.893Z,27.07
2019-01-29T08:42:59.656Z,29.00
2019-01-29T08:45:30.124Z,23.17
2019-01-29T08:48:00.517Z,24.73
2019-01-29T08:50:32.002Z,24.77
2019-01-29T08:53:03.299Z,32.80
2019-01-29T08:55:41.992Z,29.57
2019-01-29T08:58:12.445Z,26.80
2019-01-29T09:00:55.558Z,27.83
2019-01-29T09:03:26.294Z,24.27
2019-01-29T09:05:56.727Z,24.80
2019-01-29T09:08:27.451Z,21.77
2019-01-29T09:10:57.935Z,28.13
2019-01-29T09:13:28.659Z,23.17
2019-01-29T09:15:59.121Z,21.23
2019-01-29T09:18:29.907Z,24.47
2019-01-29T09:21:00.440Z,23.77
2019-01-29T09:23:31.698Z,28.60
2019-01-29T09:26:02.486Z,26.57
2019-01-29T09:28:32.890Z,22.80
2019-01-29T09:31:03.629Z,21.90
2019-01-29T09:33:44.113Z,23.50
2019-01-29T09:36:14.549Z,22.27
2019-01-29T09:38:46.010Z,20.97
2019-01-29T09:41:16.445Z,22.07
2019-01-29T09:43:46.821Z,25.33
2019-01-29T09:46:17.225Z,26.43
2019-01-29T09:48:47.571Z,20.60
2019-01-29T09:51:18.051Z,26.53
2019-01-29T09:53:48.402Z,27.53
2019-01-29T09:56:19.494Z,28.03
2019-01-29T09:58:50.254Z,28.30
2019-01-29T10:01:20.919Z,30.03
2019-01-29T10:03:53.693Z,31.93
2019-01-29T10:06:24.067Z,28.20
2019-01-29T10:08:54.468Z,31.30
2019-01-29T10:11:25.106Z,28.17
2019-01-29T10:13:55.876Z,31.67
2019-01-29T10:16:26.353Z,28.50
2019-01-29T10:18:56.822Z,30.47
2019-01-29T10:21:27.301Z,27.57
2019-01-29T10:23:57.649Z,28.13
2019-01-29T10:26:28.302Z,32.17
2019-01-29T10:28:58.670Z,27.37
2019-01-29T10:31:30.398Z,26.40
2019-01-29T10:34:03.108Z,24.77
2019-01-29T10:36:34.001Z,20.27
2019-01-29T10:39:07.079Z,25.90
2019-01-29T10:41:37.477Z,21.50
2019-01-29T10:44:07.845Z,25.03
2019-01-29T10:46:38.558Z,26.23
2019-01-29T10:49:08.993Z,23.27
2019-01-29T10:51:39.346Z,21.00
2019-01-29T10:54:09.746Z,27.33
2019-01-29T10:56:42.142Z,18.67
2019-01-29T10:59:12.531Z,22.10
2019-01-29T11:01:42.886Z,25.57
2019-01-29T11:04:13.790Z,26.53
2019-01-29T11:06:44.161Z,21.97
2019-01-29T11:09:15.267Z,26.97
2019-01-29T11:11:45.671Z,27.77
2019-01-29T11:14:16.026Z,26.03
2019-01-29T11:16:46.394Z,27.13
2019-01-29T11:19:16.794Z,25.17
2019-01-29T11:21:47.703Z,28.93
2019-01-29T11:24:18.420Z,24.97
2019-01-29T11:26:48.884Z,30.47
2019-01-29T11:29:19.270Z,28.70
2019-01-29T11:31:49.735Z,29.83
2019-01-29T11:34:26.260Z,28.67
2019-01-29T11:36:56.694Z,27.50
2019-01-29T11:39:27.212Z,25.40
2019-01-29T11:42:08.673Z,26.60
2019-01-29T11:44:39.087Z,28.63
2019-01-29T11:47:09.930Z,28.40
2019-01-29T11:49:40.766Z,30.73
2019-01-29T11:52:12.350Z,27.53
2019-01-29T11:54:42.894Z,27.83
2019-01-29T11:57:13.313Z,26.97
2019-01-29T11:59:43.791Z,33.23
2019-01-29T12:02:14.305Z,31.13
2019-01-29T12:04:44.860Z,31.57
2019-01-29T12:07:15.311Z,27.03
2019-01-29T12:09:45.807Z,27.30
2019-01-29T12:12:16.795Z,30.37
2019-01-29T12:14:47.334Z,30.77
2019-01-29T12:17:18.362Z,31.57
2019-01-29T12:19:48.760Z,30.07
2019-01-29T12:22:21.425Z,34.87
2019-01-29T12:24:51.899Z,30.33
2019-01-29T12:27:22.331Z,29.80
2019-01-29T12:29:55.788Z,29.30
2019-01-29T12:32:27.253Z,27.50
2019-01-29T12:34:57.989Z,31.67
2019-01-29T12:37:28.540Z,29.30
2019-01-29T12:39:59.311Z,29.80
2019-01-29T12:42:29.697Z,29.30
2019-01-29T12:45:00.262Z,29.07
2019-01-29T12:47:30.760Z,30.37
2019-01-29T12:50:01.183Z,27.47
2019-01-29T12:52:43.978Z,30.23
2019-01-29T12:55:14.484Z,30.57
2019-01-29T12:57:45.249Z,31.00
2019-01-29T13:00:17.447Z,28.63
2019-01-29T13:02:47.875Z,35.87
2019-01-29T13:05:18.291Z,30.80
2019-01-29T13:07:48.930Z,38.30
2019-01-29T13:10:21.695Z,30.00
2019-01-29T13:12:52.071Z,35.33
2019-01-29T13:15:26.592Z,33.23
2019-01-29T13:17:57.302Z,32.50
2019-01-29T13:20:30.068Z,35.07
2019-01-29T13:23:00.447Z,32.70
2019-01-29T13:25:31.246Z,32.40
2019-01-29T13:28:01.991Z,29.13
2019-01-29T13:30:34.725Z,31.13
2019-01-29T13:33:07.590Z,30.23
2019-01-29T13:35:38.603Z,31.07
2019-01-29T13:38:09.939Z,30.37
2019-01-29T13:40:40.364Z,30.03
2019-01-29T13:43:10.917Z,31.33
2019-01-29T13:45:41.407Z,29.90
2019-01-29T13:48:11.802Z,28.67
2019-01-29T13:50:52.229Z,33.90
2019-01-29T13:53:22.612Z,31.60
2019-01-29T13:55:53.027Z,34.57
2019-01-29T13:58:24.354Z,31.80
2019-01-29T14:00:55.108Z,29.90
2019-01-29T14:03:25.483Z,27.40
2019-01-29T14:05:56.249Z,26.30
2019-01-29T14:08:27.159Z,29.00
2019-01-29T14:10:57.593Z,27.70
2019-01-29T14:13:28.193Z,28.63
2019-01-29T14:16:02.012Z,25.97
2019-01-29T14:18:33.498Z,27.53
2019-01-29T14:21:03.859Z,30.13
2019-01-29T14:23:36.343Z,25.20
2019-01-29T14:26:07.179Z,27.20
2019-01-29T14:28:37.679Z,26.70
2019-01-29T14:31:08.204Z,26.33
2019-01-29T14:33:38.653Z,27.07
2019-01-29T14:36:16.652Z,27.00
2019-01-29T14:39:31.868Z,27.53
2019-01-29T14:42:02.582Z,27.20
2019-01-29T14:44:37.997Z,27.53
2019-01-29T14:47:08.391Z,23.37
2019-01-29T14:49:38.820Z,21.97
2019-01-29T14:52:09.801Z,24.97
2019-01-29T14:54:40.171Z,22.13
2019-01-29T14:57:11.195Z,25.90
2019-01-29T14:59:41.582Z,23.00
2019-01-29T15:02:12.293Z,21.23
2019-01-29T15:04:43.176Z,27.23
2019-01-29T15:07:13.685Z,22.70
2019-01-29T15:09:56.514Z,29.30
2019-01-29T15:12:26.888Z,25.33
2019-01-29T15:14:57.472Z,23.93
2019-01-29T15:17:36.901Z,28.50
2019-01-29T15:20:09.921Z,25.33
2019-01-29T15:22:40.963Z,25.67
2019-01-29T15:25:12.681Z,27.33
2019-01-29T15:27:43.109Z,27.90
2019-01-29T15:30:24.032Z,23.57
2019-01-29T15:32:54.402Z,25.73
2019-01-29T15:35:24.794Z,28.97
2019-01-29T15:37:55.493Z,25.83
2019-01-29T15:40:25.978Z,25.17
2019-01-29T15:42:56.362Z,25.13
2019-01-29T15:45:26.899Z,24.70
2019-01-29T15:47:57.236Z,26.43
2019-01-29T15:50:27.679Z,26.67
2019-01-29T15:52:58.371Z,24.00
2019-01-29T15:55:28.727Z,27.50
2019-01-29T15:57:59.262Z,25.20
2019-01-29T16:00:31.352Z,28.30
2019-01-29T16:03:01.829Z,23.33
2019-01-29T16:05:41.681Z,24.63
2019-01-29T16:08:12.425Z,26.10
2019-01-29T16:10:43.231Z,24.30
2019-01-29T16:13:13.563Z,27.43
2019-01-29T16:15:43.936Z,25.97
2019-01-29T16:18:14.462Z,23.33
2019-01-29T16:20:45.036Z,29.93
2019-01-29T16:23:15.399Z,26.67
2019-01-29T16:25:45.824Z,28.77
2019-01-29T16:28:16.212Z,23.57
2019-01-29T16:30:46.595Z,21.90
2019-01-29T16:33:17.018Z,27.00
2019-01-29T16:35:47.372Z,24.03
2019-01-29T16:38:17.962Z,22.73
2019-01-29T16:40:48.516Z,26.97
2019-01-29T16:43:18.918Z,22.30
2019-01-29T16:45:49.582Z,25.30
2019-01-29T16:48:19.927Z,23.67
2019-01-29T16:50:50.402Z,24.83
2019-01-29T16:53:20.750Z,28.47
2019-01-29T16:55:52.171Z,27.43
2019-01-29T16:58:22.502Z,27.93
2019-01-29T17:00:52.841Z,30.70
2019-01-29T17:03:23.213Z,24.53
2019-01-29T17:05:53.587Z,25.83
2019-01-29T17:08:24.250Z,25.13
2019-01-29T17:10:54.936Z,26.70
2019-01-29T17:13:25.272Z,23.17
2019-01-29T17:15:55.620Z,21.90
2019-01-29T17:18:25.962Z,24.27
2019-01-29T17:21:15.457Z,22.00
2019-01-29T17:23:46.803Z,26.03
2019-01-29T17:26:17.218Z,26.73
2019-01-29T17:28:47.573Z,21.37
2019-01-29T17:31:18.208Z,24.40
2019-01-29T17:33:48.629Z,23.60
2019-01-29T17:36:18.997Z,18.53
2019-01-29T17:38:49.627Z,19.57
2019-01-29T17:41:19.965Z,20.93
2019-01-29T17:43:50.639Z,17.40
2019-01-29T17:46:21.001Z,15.03
2019-01-29T17:48:51.403Z,16.17
2019-01-29T17:51:22.126Z,15.20
2019-01-29T17:53:52.852Z,15.20
2019-01-29T17:56:23.238Z,14.03
2019-01-29T17:58:53.892Z,14.37
2019-01-29T18:01:24.261Z,14.47
2019-01-29T18:03:56.951Z,15.10
2019-01-29T18:06:27.319Z,13.87
2019-01-29T18:08:57.954Z,9.47
2019-01-29T18:11:28.389Z,11.53
2019-01-29T18:13:58.752Z,10.87
2019-01-29T18:16:29.153Z,11.60
2019-01-29T18:18:59.609Z,9.67
2019-01-29T18:21:30.011Z,12.97
2019-01-29T18:24:00.448Z,10.03
2019-01-29T18:26:30.790Z,10.60
2019-01-29T18:29:04.867Z,12.67
2019-01-29T18:31:35.776Z,9.53
2019-01-29T18:34:06.165Z,11.03
2019-01-29T18:36:36.667Z,10.53
2019-01-29T18:39:09.878Z,10.53
2019-01-29T18:41:40.299Z,11.30
2019-01-29T18:44:10.983Z,9.23
2019-01-29T18:46:41.509Z,19.90
2019-01-29T18:49:11.915Z,8.70
2019-01-29T18:51:42.246Z,9.40
2019-01-29T18:54:12.736Z,7.70
2019-01-29T18:56:43.057Z,9.73
2019-01-29T18:59:13.417Z,11.23
2019-01-29T19:01:43.800Z,9.50
2019-01-29T19:04:14.184Z,11.83
2019-01-29T19:06:46.868Z,11.90
2019-01-29T19:09:17.553Z,10.03
2019-01-29T19:11:48.038Z,12.17
2019-01-29T19:14:20.978Z,12.00
2019-01-29T19:16:51.326Z,9.20
2019-01-29T19:19:21.643Z,11.07
2019-01-29T19:21:52.240Z,9.20
2019-01-29T19:24:22.550Z,9.30
2019-01-29T19:26:52.963Z,9.90
2019-01-29T19:29:23.311Z,7.27
2019-01-29T19:31:53.713Z,9.83
2019-01-29T19:34:24.093Z,9.67
2019-01-29T19:36:54.538Z,9.83
2019-01-29T19:39:24.905Z,7.50
2019-01-29T19:41:55.270Z,10.37
2019-01-29T19:44:25.737Z,9.70
2019-01-29T19:46:56.095Z,10.63
2019-01-29T19:49:26.445Z,8.53
2019-01-29T19:52:04.017Z,10.33
2019-01-29T19:54:34.433Z,9.43
2019-01-29T19:57:04.873Z,8.53
2019-01-29T19:59:35.213Z,12.60
2019-01-29T20:02:05.731Z,11.70
2019-01-29T20:04:36.127Z,9.80
2019-01-29T20:07:06.891Z,10.17
2019-01-29T20:09:37.519Z,14.97
2019-01-29T20:12:09.649Z,11.70
2019-01-29T20:14:40.231Z,10.50
2019-01-29T20:17:10.545Z,7.63
2019-01-29T20:19:41.518Z,8.90
2019-01-29T20:22:12.018Z,9.20
2019-01-29T20:24:42.639Z,7.67
2019-01-29T20:27:13.322Z,8.07
2019-01-29T20:29:43.929Z,9.53
2019-01-29T20:32:14.636Z,9.83
2019-01-29T20:34:45.398Z,10.43
2019-01-29T20:37:15.750Z,9.13
2019-01-29T20:39:46.488Z,12.33
2019-01-29T20:42:16.798Z,11.13
2019-01-29T20:44:47.166Z,13.20
2019-01-29T20:47:17.834Z,12.87
2019-01-29T20:49:48.819Z,14.87
2019-01-29T20:52:19.162Z,10.87
2019-01-29T20:54:49.795Z,7.70
2019-01-29T20:57:20.178Z,8.03
2019-01-29T20:59:50.894Z,7.57
2019-01-29T21:02:21.803Z,11.60
2019-01-29T21:04:52.144Z,6.87
2019-01-29T21:07:22.470Z,10.53
2019-01-29T21:09:52.844Z,10.50
2019-01-29T21:12:23.254Z,9.63
2019-01-29T21:14:54.180Z,9.27
2019-01-29T21:17:24.750Z,10.77
2019-01-29T21:19:55.141Z,8.97
2019-01-29T21:22:25.622Z,18.30
2019-01-29T21:24:56.015Z,9.93
2019-01-29T21:27:26.659Z,11.27
2019-01-29T21:30:04.706Z,12.80
2019-01-29T21:32:35.030Z,10.43
2019-01-29T21:35:05.899Z,7.80
2019-01-29T21:37:36.251Z,7.33
2019-01-29T21:40:08.964Z,12.50
2019-01-29T21:42:39.515Z,9.03
2019-01-29T21:45:11.911Z,8.80
2019-01-29T21:47:42.615Z,7.83
2019-01-29T21:50:19.439Z,12.47
2019-01-29T21:52:50.894Z,11.03
2019-01-29T21:55:21.701Z,9.97
2019-01-29T21:57:52.067Z,10.83
2019-01-29T22:00:31.669Z,9.37
2019-01-29T22:03:02.314Z,12.97
2019-01-29T22:05:42.332Z,9.93
2019-01-29T22:08:13.098Z,9.20
2019-01-29T22:10:43.723Z,9.70
2019-01-29T22:13:14.703Z,9.30
2019-01-29T22:15:45.050Z,9.17
2019-01-29T22:18:16.269Z,9.83
2019-01-29T22:20:53.669Z,9.13
2019-01-29T22:23:24.005Z,9.87
2019-01-29T22:25:54.848Z,9.70
2019-01-29T22:28:25.224Z,12.90
2019-01-29T22:30:55.796Z,10.93
2019-01-29T22:33:26.156Z,9.83
2019-01-29T22:35:56.656Z,9.97
2019-01-29T22:38:41.439Z,13.90
2019-01-29T22:41:11.793Z,11.53
2019-01-29T22:43:42.202Z,8.70
2019-01-29T22:46:12.559Z,8.37
2019-01-29T22:48:42.958Z,13.63
2019-01-29T22:51:13.283Z,8.70
2019-01-29T22:53:43.640Z,11.03
2019-01-29T22:56:14.275Z,9.87
2019-01-29T22:58:45.292Z,10.70
2019-01-29T23:01:43.364Z,10.10
2019-01-29T23:04:20.710Z,8.47
2019-01-29T23:07:08.044Z,10.97
2019-01-29T23:09:38.371Z,13.07
2019-01-29T23:12:08.780Z,11.03
2019-01-29T23:14:40.109Z,11.57
2019-01-29T23:17:10.823Z,10.77
2019-01-29T23:19:41.555Z,10.43
2019-01-29T23:22:11.900Z,8.93
2019-01-29T23:24:42.298Z,12.17
2019-01-29T23:27:13.222Z,11.47
2019-01-29T23:29:43.916Z,12.90
2019-01-29T23:32:15.076Z,14.50
2019-01-29T23:34:45.727Z,10.90
2019-01-29T23:37:16.391Z,11.70
2019-01-29T23:39:46.737Z,15.37
2019-01-29T23:42:17.068Z,11.93
2019-01-29T23:44:47.444Z,12.70
2019-01-29T23:47:17.788Z,15.37
2019-01-29T23:49:48.520Z,13.67
2019-01-29T23:52:18.841Z,18.37
2019-01-29T23:54:49.227Z,16.17
2019-01-29T23:57:19.540Z,13.00
2019-01-29T23:59:53.819Z,12.63
